Patrick Air Force Base, FL

12:45 EDT le 25 octobre 2014 (GMT -0400)
Patrick Air Force Base | Change Station
CLOSE
Current Station
Aéroport
Location: Cocoa Beach,
Altitude: 10 ft
Stations météo à proximité

Alt. 10 ft 28.24 °N, 80.60 °W | Updated 47 minutes ago

Ciel dégagé
Ciel dégagé
77 ° F
Paraît 77 ° F
N
12
Vent Variable Vent de NNO

Aujourd'hui
Haut(e) -- | Bas -- ° F
--% Risque de précip.
Hier
Haut(e) -- | Bas -- ° F
Precip. -- pouce
7:29 AM 6:43 PM
Lune montante, 3% visible
Pression 29.99 pouce
Visibilité 10.0 Miles terrestres
Nuages Ciel dégagé
Point de rosée 63 ° F
Humidité 62%
Précipitations 0.00 pouce
Profondeur de la couche neigeuse Non disponible.
UV 8 sur 12
Pollen 5.80 sur 12
Qualité de l'air Non disponible.
Flu Activity Local Activity
METAR KCOF 251558Z AUTO 33010KT 10SM CLR 25/17 A2998 RMK AO2 SLP156 T02480172

More Conditions Fewer Conditions

Pression 29.99 pouce
Visibilité 10.0 Miles terrestres
Nuages Ciel dégagé
Point de rosée 63 ° F
Humidité 62%
Précipitations 0.00 pouce
Profondeur de la couche neigeuse Non disponible.
UV 8 sur 12
Pollen 5.80 sur 12
Qualité de l'air Non disponible.
Flu Activity Local Activity
METAR KCOF 251558Z AUTO 33010KT 10SM CLR 25/17 A2998 RMK AO2 SLP156 T02480172

More Conditions Fewer Conditions

10-Day Weather Forecast

Almanac

Astronomie

Oct. 25, 2014 Lever Coucher
Temps réel 07:29 EDT 18:43 EDT
Crépuscule civil 07:05 EDT 19:07 EDT
Crépuscule nautique 06:37 EDT 19:34 EDT
Crépuscule astronomique 06:10 EDT 20:02 EDT
Lune 09:00 EDT 20:12 EDT
Durée de lumière visible 12h 02m
Longueur du jour
11h 14m
Tomorrow will be 1m 31s shorter.
Lune montante, 3% of the Moon is Illuminated
Aujourd'hui
Lune montante
Oct 30
Premier quartier
Nov 6
Pleine lune
Nov 14
Dernier quartier
Nov 22
Nouveau

Extrêmes aujourd'hui

State Highs State Lows

Community

WunderPhotos

Upload Photos

1,764,901 Photos téléchargées !

Nearby

Épaisseur de neige

Station Depth Altitude
Pas de nouvelles chutes de neige

Activité sismique

Ville Distance Mag. Time & Date
No recent earthquake activity has been reported nearby.
Minimum magnitude displayed is 2.5.

Températures des eaux côtières

Lieu Température
Trident Pier, FL 78.1 ° F
Fort Myers, FL 75.9 ° F
Lake Worth, FL 79.0 ° F

Stations météo à proximité